createdAt,value
2017-11-13T00:00:40.071Z,9.30
2017-11-13T00:03:42.345Z,8.23
2017-11-13T00:06:44.600Z,8.23
2017-11-13T00:09:46.135Z,11.10
2017-11-13T00:12:47.577Z,12.73
2017-11-13T00:15:49.053Z,8.10
2017-11-13T00:18:50.550Z,5.63
2017-11-13T00:25:00.334Z,8.20
2017-11-13T00:28:02.564Z,9.33
2017-11-13T00:31:04.080Z,7.63
2017-11-13T00:34:05.536Z,4.53
2017-11-13T00:37:07.003Z,5.70
2017-11-13T00:40:08.533Z,7.27
2017-11-13T00:43:10.787Z,7.97
2017-11-13T00:46:12.507Z,8.17
2017-11-13T00:49:13.956Z,3.83
2017-11-13T00:52:15.532Z,7.17
2017-11-13T00:55:16.998Z,10.27
2017-11-13T00:58:18.505Z,10.67
2017-11-13T01:01:20.012Z,5.97
2017-11-13T01:04:21.549Z,4.60
2017-11-13T01:07:23.045Z,6.50
2017-11-13T01:13:32.720Z,3.60
2017-11-13T01:16:34.962Z,4.33
2017-11-13T01:19:36.749Z,5.87
2017-11-13T01:22:38.950Z,4.20
2017-11-13T01:25:40.427Z,7.40
2017-11-13T01:28:41.963Z,6.10
2017-11-13T01:31:43.497Z,4.57
2017-11-13T01:34:45.705Z,4.20
2017-11-13T01:37:47.319Z,11.23
2017-11-13T01:40:48.889Z,5.47
2017-11-13T01:43:51.105Z,6.23
2017-11-13T01:46:52.664Z,2.27
2017-11-13T01:49:54.104Z,5.37
2017-11-13T01:52:55.734Z,13.50
2017-11-13T01:55:57.163Z,9.87
2017-11-13T01:58:58.612Z,2.40
2017-11-13T02:01:59.977Z,5.77
2017-11-13T02:05:02.232Z,9.33
2017-11-13T02:08:03.666Z,3.70
2017-11-13T02:11:05.157Z,5.67
2017-11-13T02:14:07.424Z,3.27
2017-11-13T02:17:09.017Z,6.30
2017-11-13T02:20:10.530Z,6.40
2017-11-13T02:23:12.011Z,2.93
2017-11-13T02:26:14.269Z,10.20
2017-11-13T02:29:16.443Z,4.60
2017-11-13T02:32:18.633Z,10.13
2017-11-13T02:35:20.046Z,19.90
2017-11-13T02:41:30.473Z,5.70
2017-11-13T02:44:31.929Z,5.83
2017-11-13T02:47:33.427Z,3.83
2017-11-13T02:50:34.875Z,5.50
2017-11-13T02:53:36.355Z,2.93
2017-11-13T02:56:38.584Z,3.80
2017-11-13T02:59:40.064Z,7.97
2017-11-13T03:02:41.442Z,3.30
2017-11-13T03:05:42.880Z,5.43
2017-11-13T03:08:45.051Z,4.37
2017-11-13T03:11:47.281Z,7.37
2017-11-13T03:14:48.774Z,5.90
2017-11-13T03:17:50.937Z,7.57
2017-11-13T03:20:53.106Z,5.83
2017-11-13T03:23:55.290Z,4.83
2017-11-13T03:26:57.482Z,5.60
2017-11-13T03:29:58.915Z,7.97
2017-11-13T03:33:01.098Z,4.93
2017-11-13T03:36:02.556Z,2.10
2017-11-13T03:39:03.965Z,5.47
2017-11-13T03:42:05.369Z,6.37
2017-11-13T03:45:06.803Z,9.00
2017-11-13T03:48:08.224Z,3.00
2017-11-13T03:51:09.565Z,5.10
2017-11-13T03:54:11.047Z,4.30
2017-11-13T03:57:12.535Z,5.07
2017-11-13T04:00:13.966Z,3.80
2017-11-13T04:03:15.386Z,4.40
2017-11-13T04:06:17.528Z,8.90
2017-11-13T04:09:18.977Z,10.20
2017-11-13T04:12:20.383Z,5.93
2017-11-13T04:15:21.948Z,7.80
2017-11-13T04:18:23.376Z,6.03
2017-11-13T04:21:25.559Z,2.97
2017-11-13T04:24:27.014Z,9.10
2017-11-13T04:27:28.405Z,13.90
2017-11-13T04:30:29.863Z,3.47
2017-11-13T04:33:31.284Z,6.00
2017-11-13T04:36:32.675Z,5.03
2017-11-13T04:39:34.066Z,10.57
2017-11-13T04:42:36.259Z,5.90
2017-11-13T04:45:37.637Z,5.47
2017-11-13T04:48:39.092Z,5.27
2017-11-13T04:51:40.844Z,4.93
2017-11-13T04:54:42.964Z,10.03
2017-11-13T04:57:45.170Z,5.33
2017-11-13T05:00:46.560Z,5.30
2017-11-13T05:03:47.991Z,7.47
2017-11-13T05:06:49.460Z,5.27
2017-11-13T05:09:50.927Z,26.27
2017-11-13T05:12:53.141Z,17.90
2017-11-13T05:15:54.554Z,8.53
2017-11-13T05:18:56.760Z,11.60
2017-11-13T05:21:58.249Z,5.10
2017-11-13T05:24:59.698Z,5.93
2017-11-13T05:28:01.139Z,6.03
2017-11-13T05:31:02.584Z,7.73
2017-11-13T05:34:03.987Z,6.80
2017-11-13T05:37:06.157Z,13.50
2017-11-13T05:40:08.262Z,11.53
2017-11-13T05:43:09.705Z,19.60
2017-11-13T05:46:11.246Z,146.27
2017-11-13T05:49:12.643Z,45.47
2017-11-13T05:52:14.158Z,19.80
2017-11-13T05:55:15.539Z,13.50
2017-11-13T05:58:16.964Z,6.23
2017-11-13T06:01:18.424Z,6.30
2017-11-13T06:04:19.807Z,13.43
2017-11-13T06:07:21.235Z,5.77
2017-11-13T06:10:22.645Z,11.60
2017-11-13T06:13:24.766Z,16.20
2017-11-13T06:16:26.180Z,8.97
2017-11-13T06:19:28.302Z,16.30
2017-11-13T06:22:29.721Z,10.37
2017-11-13T06:25:31.128Z,11.60
2017-11-13T06:28:32.511Z,4.40
2017-11-13T06:31:33.878Z,12.73
2017-11-13T06:34:35.289Z,9.67
2017-11-13T06:37:37.456Z,5.90
2017-11-13T06:40:39.572Z,5.20
2017-11-13T06:43:40.991Z,16.57
2017-11-13T06:46:42.395Z,18.10
2017-11-13T06:49:43.879Z,15.43
2017-11-13T06:52:46.021Z,24.13
2017-11-13T06:55:47.512Z,9.93
2017-11-13T06:58:49.649Z,6.33
2017-11-13T07:01:51.080Z,7.90
2017-11-13T07:04:52.521Z,15.17
2017-11-13T07:07:53.989Z,10.43
2017-11-13T07:10:55.364Z,12.07
2017-11-13T07:13:56.790Z,8.17
2017-11-13T07:16:58.231Z,12.47
2017-11-13T07:19:59.640Z,11.73
2017-11-13T07:23:01.773Z,18.40
2017-11-13T07:26:03.220Z,13.13
2017-11-13T07:29:04.672Z,21.23
2017-11-13T07:32:06.142Z,10.30
2017-11-13T07:35:07.581Z,12.60
2017-11-13T07:38:09.753Z,19.07
2017-11-13T07:41:11.176Z,12.33
2017-11-13T07:44:12.504Z,10.90
2017-11-13T07:47:14.544Z,14.13
2017-11-13T07:50:15.832Z,22.57
2017-11-13T07:53:17.117Z,14.93
2017-11-13T07:56:18.403Z,20.37
2017-11-13T07:59:20.439Z,18.27
2017-11-13T08:02:21.718Z,19.87
2017-11-13T08:05:23.806Z,7.67
2017-11-13T08:08:25.104Z,13.37
2017-11-13T08:11:26.801Z,16.73
2017-11-13T08:14:28.901Z,13.40
2017-11-13T08:17:30.230Z,7.40
2017-11-13T08:20:31.556Z,19.33
2017-11-13T08:23:33.566Z,15.83
2017-11-13T08:26:34.917Z,16.43
2017-11-13T08:29:36.245Z,18.13
2017-11-13T08:32:37.586Z,17.10
2017-11-13T08:35:39.711Z,27.10
2017-11-13T08:38:40.973Z,14.77
2017-11-13T08:41:42.307Z,17.07
2017-11-13T08:44:43.590Z,20.23
2017-11-13T08:47:47.673Z,19.00
2017-11-13T08:50:49.028Z,20.53
2017-11-13T08:53:50.510Z,25.43
2017-11-13T08:56:52.601Z,37.17
2017-11-13T08:59:53.884Z,20.50
2017-11-13T09:02:55.211Z,17.27
2017-11-13T09:05:56.489Z,23.47
2017-11-13T09:08:57.799Z,22.33
2017-11-13T09:11:59.850Z,18.33
2017-11-13T09:15:01.894Z,23.57
2017-11-13T09:18:03.502Z,24.40
2017-11-13T09:21:04.865Z,43.33
2017-11-13T09:24:06.197Z,18.07
2017-11-13T09:27:07.525Z,25.30
2017-11-13T09:30:09.616Z,19.17
2017-11-13T09:33:10.915Z,20.27
2017-11-13T09:36:12.270Z,25.10
2017-11-13T09:39:13.596Z,19.93
2017-11-13T09:42:15.097Z,25.77
2017-11-13T09:45:17.296Z,21.30
2017-11-13T09:48:18.697Z,14.87
2017-11-13T09:51:20.097Z,23.80
2017-11-13T09:54:21.507Z,28.60
2017-11-13T09:57:22.917Z,16.40
2017-11-13T10:00:24.361Z,16.33
2017-11-13T10:03:26.222Z,17.90
2017-11-13T10:06:27.643Z,246.07
2017-11-13T10:09:29.768Z,404.00
2017-11-13T10:12:31.190Z,17.33
2017-11-13T10:15:32.615Z,16.93
2017-11-13T10:18:34.789Z,26.50
2017-11-13T10:21:36.874Z,24.23
2017-11-13T10:24:38.313Z,11.83
2017-11-13T10:27:39.710Z,20.53
2017-11-13T10:30:41.140Z,20.17
2017-11-13T10:33:42.522Z,18.17
2017-11-13T10:36:43.913Z,20.50
2017-11-13T10:39:45.304Z,21.83
2017-11-13T10:42:46.612Z,12.40
2017-11-13T10:45:48.709Z,16.37
2017-11-13T10:48:50.061Z,17.50
2017-11-13T10:51:51.452Z,32.57
2017-11-13T10:54:52.847Z,18.30
2017-11-13T10:57:54.256Z,16.20
2017-11-13T11:00:55.662Z,15.40
2017-11-13T11:03:57.052Z,29.90
2017-11-13T11:06:58.502Z,20.20
2017-11-13T11:09:59.877Z,15.93
2017-11-13T11:13:01.273Z,15.40
2017-11-13T11:16:07.604Z,15.60
2017-11-13T11:19:10.645Z,6.90
2017-11-13T11:22:12.945Z,20.83
2017-11-13T11:25:14.353Z,16.43
2017-11-13T11:28:15.806Z,27.03
2017-11-13T11:31:20.119Z,69.53
2017-11-13T11:38:00.710Z,20.80
2017-11-13T11:41:03.984Z,18.50
2017-11-13T11:44:11.883Z,12.30
2017-11-13T11:47:13.984Z,26.73
2017-11-13T11:50:15.331Z,18.27
2017-11-13T11:53:16.760Z,29.80
2017-11-13T11:56:18.895Z,14.30
2017-11-13T11:59:20.249Z,19.53
2017-11-13T12:02:21.686Z,15.20
2017-11-13T12:05:23.083Z,12.40
2017-11-13T12:08:25.232Z,22.93
2017-11-13T12:11:26.649Z,14.10
2017-11-13T12:14:27.994Z,27.10
2017-11-13T12:17:29.389Z,21.07
2017-11-13T12:20:31.522Z,18.63
2017-11-13T12:23:32.924Z,20.53
2017-11-13T12:26:35.007Z,15.97
2017-11-13T12:29:36.391Z,16.33
2017-11-13T12:32:38.531Z,18.07
2017-11-13T12:35:39.933Z,28.37
2017-11-13T12:38:41.299Z,20.53
2017-11-13T12:41:43.452Z,34.03
2017-11-13T12:44:44.951Z,23.10
2017-11-13T12:47:46.352Z,14.27
2017-11-13T12:50:48.013Z,17.57
2017-11-13T12:53:49.359Z,9.73
2017-11-13T12:56:50.832Z,24.03
2017-11-13T12:59:52.231Z,18.03
2017-11-13T13:02:53.668Z,11.80
2017-11-13T13:05:55.027Z,12.80
2017-11-13T13:08:56.393Z,18.53
2017-11-13T13:11:57.758Z,15.70
2017-11-13T13:14:59.195Z,24.40
2017-11-13T13:18:00.599Z,34.53
2017-11-13T13:21:02.652Z,36.57
2017-11-13T13:24:04.753Z,23.47
2017-11-13T13:27:06.118Z,24.63
2017-11-13T13:30:07.513Z,34.77
2017-11-13T13:33:08.870Z,27.37
2017-11-13T13:36:10.537Z,33.07
2017-11-13T13:39:12.643Z,13.57
2017-11-13T13:42:20.945Z,25.20
2017-11-13T13:45:22.301Z,15.30
2017-11-13T13:48:23.723Z,18.80
2017-11-13T13:51:25.836Z,17.27
2017-11-13T13:54:27.157Z,19.03
2017-11-13T13:57:29.268Z,14.37
2017-11-13T14:00:30.613Z,16.87
2017-11-13T14:03:31.997Z,91.03
2017-11-13T14:06:33.293Z,16.83
2017-11-13T14:09:34.646Z,8.70
2017-11-13T14:12:36.002Z,14.60
2017-11-13T14:15:37.348Z,20.63
2017-11-13T14:18:38.733Z,20.83
2017-11-13T14:21:40.125Z,15.47
2017-11-13T14:24:42.298Z,15.87
2017-11-13T14:27:43.651Z,17.03
2017-11-13T14:30:45.120Z,18.40
2017-11-13T14:33:46.661Z,10.23
2017-11-13T14:36:48.062Z,15.83
2017-11-13T14:39:49.505Z,13.57
2017-11-13T14:42:50.930Z,16.50
2017-11-13T14:45:52.404Z,19.67
2017-11-13T14:48:53.754Z,16.43
2017-11-13T14:51:55.155Z,25.43
2017-11-13T14:54:57.276Z,19.70
2017-11-13T14:57:58.656Z,14.60
2017-11-13T15:01:00.057Z,26.30
2017-11-13T15:04:01.463Z,22.10
2017-11-13T15:07:02.818Z,22.10
2017-11-13T15:10:04.093Z,29.20
2017-11-13T15:13:05.464Z,23.53
2017-11-13T15:16:06.712Z,28.53
2017-11-13T15:19:08.045Z,21.60
2017-11-13T15:22:09.325Z,17.07
2017-11-13T15:25:10.682Z,22.97
2017-11-13T15:28:11.945Z,15.17
2017-11-13T15:31:13.246Z,15.67
2017-11-13T15:34:14.602Z,15.00
2017-11-13T15:37:15.860Z,8.90
2017-11-13T15:40:17.165Z,19.43
2017-11-13T15:43:19.232Z,13.43
2017-11-13T15:46:21.273Z,26.10
2017-11-13T15:49:22.561Z,10.60
2017-11-13T15:52:23.831Z,19.63
2017-11-13T15:55:25.112Z,16.13
2017-11-13T15:58:26.408Z,23.37
2017-11-13T16:01:27.747Z,16.57
2017-11-13T16:04:29.788Z,18.63
2017-11-13T16:07:31.112Z,19.23
2017-11-13T16:10:32.384Z,14.23
2017-11-13T16:13:33.678Z,28.90
2017-11-13T16:16:34.972Z,14.40
2017-11-13T16:19:36.282Z,13.40
2017-11-13T16:22:37.613Z,26.27
2017-11-13T16:25:39.659Z,11.57
2017-11-13T16:28:40.992Z,12.10
2017-11-13T16:31:42.282Z,13.67
2017-11-13T16:34:43.654Z,18.63
2017-11-13T16:37:44.946Z,20.73
2017-11-13T16:40:46.242Z,15.80
2017-11-13T16:43:47.514Z,12.80
2017-11-13T16:46:48.833Z,17.70
2017-11-13T16:49:50.141Z,19.63
2017-11-13T16:52:51.428Z,22.50
2017-11-13T16:55:52.734Z,21.70
2017-11-13T16:58:54.038Z,13.93
2017-11-13T17:01:55.366Z,18.83
2017-11-13T17:04:57.391Z,15.67
2017-11-13T17:07:58.736Z,16.30
2017-11-13T17:11:00.017Z,16.03
2017-11-13T17:14:02.080Z,11.77
2017-11-13T17:17:03.355Z,19.10
2017-11-13T17:20:04.640Z,34.27
2017-11-13T17:23:05.940Z,41.10
2017-11-13T17:26:07.990Z,34.03
2017-11-13T17:29:10.880Z,24.70
2017-11-13T17:32:12.227Z,10.33
2017-11-13T17:35:14.413Z,107.03
2017-11-13T17:38:15.775Z,197.07
2017-11-13T17:41:17.202Z,293.97
2017-11-13T17:44:18.585Z,288.07
2017-11-13T17:47:19.965Z,267.70
2017-11-13T17:50:21.313Z,87.53
2017-11-13T17:53:22.610Z,31.13
2017-11-13T17:56:24.261Z,19.90
2017-11-13T17:59:25.584Z,16.93
2017-11-13T18:02:27.000Z,290.77
2017-11-13T18:05:29.853Z,132.67
2017-11-13T18:08:31.823Z,89.67
2017-11-13T18:11:33.548Z,51.27
2017-11-13T18:14:36.459Z,33.13
2017-11-13T18:17:39.703Z,15.53
2017-11-13T18:20:41.057Z,12.30
2017-11-13T18:23:44.023Z,22.03
2017-11-13T18:26:46.657Z,15.90
2017-11-13T18:29:48.283Z,11.40
2017-11-13T18:32:49.661Z,22.53
2017-11-13T18:35:51.249Z,38.47
2017-11-13T18:38:52.578Z,12.43
2017-11-13T18:41:54.008Z,20.37
2017-11-13T18:44:55.376Z,17.20
2017-11-13T18:47:56.705Z,21.43
2017-11-13T18:50:58.049Z,16.60
2017-11-13T18:53:59.378Z,24.83
2017-11-13T18:57:01.504Z,17.70
2017-11-13T19:00:02.917Z,18.80
2017-11-13T19:03:06.452Z,23.20
2017-11-13T19:06:07.903Z,19.67
2017-11-13T19:09:09.252Z,21.90
2017-11-13T19:12:10.568Z,16.90
2017-11-13T19:15:12.678Z,13.63
2017-11-13T19:18:14.595Z,18.67
2017-11-13T19:21:16.679Z,15.30
2017-11-13T19:24:18.357Z,12.47
2017-11-13T19:27:19.697Z,12.63
2017-11-13T19:30:22.014Z,19.23
2017-11-13T19:33:23.516Z,16.87
2017-11-13T19:36:24.907Z,24.17
2017-11-13T19:39:26.244Z,19.23
2017-11-13T19:42:27.630Z,19.63
2017-11-13T19:45:28.930Z,20.50
2017-11-13T19:48:32.159Z,23.70
2017-11-13T19:51:33.510Z,10.83
2017-11-13T19:54:34.966Z,17.80
2017-11-13T19:57:36.286Z,15.13
2017-11-13T20:00:38.787Z,13.07
2017-11-13T20:03:42.115Z,18.57
2017-11-13T20:06:43.462Z,20.33
2017-11-13T20:09:45.519Z,12.70
2017-11-13T20:12:46.969Z,25.90
2017-11-13T20:15:49.143Z,15.10
2017-11-13T20:18:50.945Z,17.63
2017-11-13T20:21:52.244Z,9.13
2017-11-13T20:24:53.943Z,26.33
2017-11-13T20:27:55.942Z,12.47
2017-11-13T20:30:57.331Z,13.57
2017-11-13T20:33:58.644Z,15.93
2017-11-13T20:36:59.937Z,14.43
2017-11-13T20:40:01.958Z,19.77
2017-11-13T20:43:03.225Z,15.90
2017-11-13T20:46:05.567Z,16.20
2017-11-13T20:49:06.864Z,14.50
2017-11-13T20:52:08.184Z,17.10
2017-11-13T20:55:09.447Z,13.10
2017-11-13T20:58:11.812Z,12.77
2017-11-13T21:01:13.199Z,9.53
2017-11-13T21:04:14.501Z,21.20
2017-11-13T21:07:16.073Z,18.60
2017-11-13T21:10:17.397Z,20.13
2017-11-13T21:13:18.764Z,22.67
2017-11-13T21:16:20.025Z,20.83
2017-11-13T21:19:21.324Z,12.13
2017-11-13T21:22:22.723Z,21.40
2017-11-13T21:25:24.472Z,15.57
2017-11-13T21:28:25.796Z,22.37
2017-11-13T21:31:28.190Z,19.83
2017-11-13T21:34:29.804Z,12.00
2017-11-13T21:37:31.325Z,31.83
2017-11-13T21:40:32.686Z,17.13
2017-11-13T21:43:34.049Z,17.13
2017-11-13T21:46:35.405Z,33.43
2017-11-13T21:49:36.768Z,15.50
2017-11-13T21:52:38.385Z,18.20
2017-11-13T21:55:39.800Z,24.63
2017-11-13T21:58:41.993Z,17.97
2017-11-13T22:01:43.314Z,17.23
2017-11-13T22:04:46.201Z,21.30
2017-11-13T22:07:48.429Z,16.40
2017-11-13T22:10:49.794Z,15.60
2017-11-13T22:13:51.302Z,14.33
2017-11-13T22:16:52.799Z,17.50
2017-11-13T22:19:54.454Z,14.50
2017-11-13T22:22:55.862Z,19.87
2017-11-13T22:25:58.361Z,24.57
2017-11-13T22:28:59.744Z,22.57
2017-11-13T22:32:01.163Z,19.97
2017-11-13T22:35:02.701Z,13.40
2017-11-13T22:38:04.395Z,16.13
2017-11-13T22:41:05.769Z,16.70
2017-11-13T22:44:07.222Z,15.83
2017-11-13T22:47:09.318Z,30.97
2017-11-13T22:50:10.692Z,23.83
2017-11-13T22:53:12.133Z,21.60
2017-11-13T22:56:13.512Z,16.63
2017-11-13T22:59:14.871Z,22.90
2017-11-13T23:02:16.249Z,24.73
2017-11-13T23:05:18.444Z,21.40
2017-11-13T23:08:19.765Z,27.00
2017-11-13T23:11:21.240Z,18.33
2017-11-13T23:14:22.612Z,23.70
2017-11-13T23:17:24.029Z,22.40
2017-11-13T23:20:26.115Z,17.37
2017-11-13T23:23:27.573Z,24.43
2017-11-13T23:26:28.911Z,27.50
2017-11-13T23:29:31.082Z,20.90
2017-11-13T23:32:32.975Z,17.23
2017-11-13T23:35:34.373Z,23.10
2017-11-13T23:38:35.777Z,28.37
2017-11-13T23:41:37.102Z,25.33
2017-11-13T23:44:38.640Z,24.50
2017-11-13T23:47:40.718Z,23.67
2017-11-13T23:50:42.072Z,18.13
2017-11-13T23:53:43.519Z,40.37
2017-11-13T23:56:44.978Z,19.30
2017-11-13T23:59:46.363Z,25.00
